createdAt,value
2018-07-20T00:00:58.628Z,933.94
2018-07-20T00:01:58.577Z,933.97
2018-07-20T00:02:58.532Z,933.93
2018-07-20T00:03:58.479Z,933.93
2018-07-20T00:04:58.441Z,933.97
2018-07-20T00:05:58.398Z,933.93
2018-07-20T00:06:58.359Z,933.92
2018-07-20T00:07:58.312Z,933.93
2018-07-20T00:08:58.242Z,933.97
2018-07-20T00:09:58.217Z,933.96
2018-07-20T00:10:58.174Z,933.96
2018-07-20T00:11:58.129Z,933.93
2018-07-20T00:12:58.088Z,933.92
2018-07-20T00:13:58.017Z,933.97
2018-07-20T00:14:57.993Z,933.96
2018-07-20T00:15:57.948Z,933.91
2018-07-20T00:16:57.903Z,933.94
2018-07-20T00:17:57.860Z,933.91
2018-07-20T00:18:57.817Z,933.96
2018-07-20T00:19:57.769Z,933.95
2018-07-20T00:20:57.720Z,933.94
2018-07-20T00:21:57.678Z,933.96
2018-07-20T00:22:57.625Z,933.93
2018-07-20T00:23:57.585Z,933.95
2018-07-20T00:24:57.540Z,933.96
2018-07-20T00:25:57.491Z,933.91
2018-07-20T00:26:57.439Z,933.94
2018-07-20T00:27:57.408Z,933.94
2018-07-20T00:28:57.362Z,933.91
2018-07-20T00:29:57.320Z,933.91
2018-07-20T00:30:57.271Z,933.92
2018-07-20T00:31:57.228Z,933.92
2018-07-20T00:32:57.183Z,933.89
2018-07-20T00:33:57.149Z,933.93
2018-07-20T00:34:57.099Z,933.94
2018-07-20T00:35:57.057Z,933.90
2018-07-20T00:36:56.994Z,933.91
2018-07-20T00:37:56.958Z,933.90
2018-07-20T00:38:56.914Z,933.93
2018-07-20T00:39:56.871Z,933.88
2018-07-20T00:40:56.819Z,933.87
2018-07-20T00:41:56.780Z,933.88
2018-07-20T00:42:56.731Z,933.87
2018-07-20T00:43:56.689Z,933.89
2018-07-20T00:44:56.646Z,933.87
2018-07-20T00:45:56.585Z,933.87
2018-07-20T00:46:56.544Z,933.89
2018-07-20T00:47:56.504Z,933.88
2018-07-20T00:48:56.461Z,933.84
2018-07-20T00:49:56.425Z,933.86
2018-07-20T00:50:56.361Z,933.90
2018-07-20T00:51:56.324Z,933.86
2018-07-20T00:52:56.282Z,933.88
2018-07-20T00:53:56.226Z,933.84
2018-07-20T00:54:56.191Z,933.90
2018-07-20T00:55:56.138Z,933.85
2018-07-20T00:56:56.104Z,933.88
2018-07-20T00:57:56.055Z,933.87
2018-07-20T00:58:55.992Z,933.87
2018-07-20T00:59:55.940Z,933.90
2018-07-20T01:00:55.917Z,933.92
2018-07-20T01:01:55.869Z,933.94
2018-07-20T01:02:55.832Z,933.94
2018-07-20T01:03:55.783Z,933.96
2018-07-20T01:04:55.735Z,933.95
2018-07-20T01:05:55.695Z,933.94
2018-07-20T01:06:55.629Z,933.95
2018-07-20T01:07:55.602Z,933.94
2018-07-20T01:08:55.538Z,933.94
2018-07-20T01:09:55.518Z,933.97
2018-07-20T01:10:55.456Z,933.93
2018-07-20T01:11:55.418Z,933.94
2018-07-20T01:12:55.372Z,933.91
2018-07-20T01:13:55.327Z,933.92
2018-07-20T01:14:55.281Z,933.97
2018-07-20T01:15:55.239Z,933.94
2018-07-20T01:16:55.184Z,933.97
2018-07-20T01:17:55.147Z,933.94
2018-07-20T01:18:55.107Z,933.91
2018-07-20T01:19:55.049Z,933.90
2018-07-20T01:20:55.006Z,933.90
2018-07-20T01:21:54.974Z,933.94
2018-07-20T01:22:54.921Z,933.90
2018-07-20T01:23:54.873Z,933.88
2018-07-20T01:24:54.828Z,933.89
2018-07-20T01:25:54.774Z,933.88
2018-07-20T01:26:54.733Z,933.84
2018-07-20T01:27:54.695Z,933.86
2018-07-20T01:28:54.646Z,933.88
2018-07-20T01:29:54.605Z,933.85
2018-07-20T01:30:54.568Z,933.88
2018-07-20T01:31:54.494Z,933.91
2018-07-20T01:32:54.463Z,933.86
2018-07-20T01:33:54.410Z,933.88
2018-07-20T01:34:54.379Z,933.82
2018-07-20T01:35:54.314Z,933.79
2018-07-20T01:36:54.283Z,933.77
2018-07-20T01:37:54.230Z,933.82
2018-07-20T01:38:54.190Z,933.80
2018-07-20T01:39:54.129Z,933.76
2018-07-20T01:40:54.083Z,933.79
2018-07-20T01:41:54.055Z,933.78
2018-07-20T01:42:53.993Z,933.78
2018-07-20T01:43:53.956Z,933.76
2018-07-20T01:44:53.910Z,933.76
2018-07-20T01:45:53.869Z,933.77
2018-07-20T01:46:53.825Z,933.73
2018-07-20T01:47:53.782Z,933.79
2018-07-20T01:48:53.735Z,933.78
2018-07-20T01:49:53.687Z,933.78
2018-07-20T01:50:53.662Z,933.80
2018-07-20T01:51:53.592Z,933.80
2018-07-20T01:52:53.552Z,933.84
2018-07-20T01:53:53.515Z,933.79
2018-07-20T01:54:53.455Z,933.85
2018-07-20T01:55:53.422Z,933.88
2018-07-20T01:56:53.369Z,933.82
2018-07-20T01:57:53.327Z,933.84
2018-07-20T01:58:53.290Z,933.86
2018-07-20T01:59:53.248Z,933.86
2018-07-20T02:00:53.183Z,933.89
2018-07-20T02:01:53.138Z,933.89
2018-07-20T02:02:53.090Z,933.90
2018-07-20T02:03:53.058Z,933.84
2018-07-20T02:04:53.008Z,933.88
2018-07-20T02:05:52.946Z,933.83
2018-07-20T02:06:52.917Z,933.83
2018-07-20T02:07:52.863Z,933.83
2018-07-20T02:08:52.818Z,933.82
2018-07-20T02:09:52.777Z,933.85
2018-07-20T02:10:52.729Z,933.81
2018-07-20T02:11:52.691Z,933.83
2018-07-20T02:12:52.648Z,933.80
2018-07-20T02:13:52.589Z,933.85
2018-07-20T02:14:52.552Z,933.83
2018-07-20T02:15:52.489Z,933.83
2018-07-20T02:16:52.466Z,933.85
2018-07-20T02:17:52.423Z,933.81
2018-07-20T02:18:52.370Z,933.81
2018-07-20T02:19:52.316Z,933.81
2018-07-20T02:20:52.284Z,933.82
2018-07-20T02:21:52.232Z,933.77
2018-07-20T02:22:52.184Z,933.81
2018-07-20T02:23:52.139Z,933.82
2018-07-20T02:24:52.090Z,933.79
2018-07-20T02:25:52.047Z,933.83
2018-07-20T02:26:52.003Z,933.80
2018-07-20T02:27:51.946Z,933.80
2018-07-20T02:28:51.908Z,933.79
2018-07-20T02:29:51.879Z,933.79
2018-07-20T02:30:51.837Z,933.76
2018-07-20T02:31:51.771Z,933.76
2018-07-20T02:32:51.724Z,933.82
2018-07-20T02:33:51.688Z,933.81
2018-07-20T02:34:51.628Z,933.80
2018-07-20T02:35:51.591Z,933.78
2018-07-20T02:36:51.547Z,933.78
2018-07-20T02:37:51.505Z,933.76
2018-07-20T02:38:51.462Z,933.79
2018-07-20T02:39:51.414Z,933.83
2018-07-20T02:40:51.373Z,933.79
2018-07-20T02:41:51.323Z,933.82
2018-07-20T02:42:51.284Z,933.82
2018-07-20T02:43:51.241Z,933.84
2018-07-20T02:44:51.184Z,933.85
2018-07-20T02:45:51.139Z,933.84
2018-07-20T02:46:51.092Z,933.86
2018-07-20T02:47:51.049Z,933.84
2018-07-20T02:48:51.012Z,933.84
2018-07-20T02:49:50.948Z,933.86
2018-07-20T02:50:50.903Z,933.87
2018-07-20T02:51:50.868Z,933.86
2018-07-20T02:52:50.828Z,933.89
2018-07-20T02:53:50.775Z,933.88
2018-07-20T02:54:50.721Z,933.87
2018-07-20T02:55:50.680Z,933.91
2018-07-20T02:56:50.642Z,933.84
2018-07-20T02:57:50.584Z,933.89
2018-07-20T02:58:50.544Z,933.87
2018-07-20T02:59:50.492Z,933.87
2018-07-20T03:00:50.455Z,933.86
2018-07-20T03:01:50.406Z,933.91
2018-07-20T03:02:50.353Z,933.84
2018-07-20T03:03:50.324Z,933.84
2018-07-20T03:04:50.274Z,933.89
2018-07-20T03:05:50.223Z,933.87
2018-07-20T03:06:50.192Z,933.89
2018-07-20T03:07:50.109Z,933.86
2018-07-20T03:08:50.081Z,933.87
2018-07-20T03:09:50.037Z,933.87
2018-07-20T03:10:49.998Z,933.86
2018-07-20T03:11:49.929Z,933.84
2018-07-20T03:12:49.906Z,933.84
2018-07-20T03:13:49.845Z,933.83
2018-07-20T03:14:49.819Z,933.84
2018-07-20T03:15:49.759Z,933.80
2018-07-20T03:16:49.717Z,933.85
2018-07-20T03:17:49.685Z,933.76
2018-07-20T03:18:49.642Z,933.81
2018-07-20T03:19:49.584Z,933.81
2018-07-20T03:20:49.548Z,933.81
2018-07-20T03:21:49.503Z,933.81
2018-07-20T03:22:49.453Z,933.78
2018-07-20T03:23:49.402Z,933.79
2018-07-20T03:24:49.365Z,933.77
2018-07-20T03:25:49.311Z,933.79
2018-07-20T03:26:49.269Z,933.81
2018-07-20T03:27:49.218Z,933.80
2018-07-20T03:28:49.165Z,933.76
2018-07-20T03:29:49.136Z,933.78
2018-07-20T03:30:49.086Z,933.77
2018-07-20T03:31:49.039Z,933.77
2018-07-20T03:32:49.062Z,933.72
2018-07-20T03:33:48.937Z,933.74
2018-07-20T03:34:48.898Z,933.74
2018-07-20T03:35:48.830Z,933.66
2018-07-20T03:36:48.799Z,933.64
2018-07-20T03:37:48.765Z,933.72
2018-07-20T03:38:48.718Z,933.72
2018-07-20T03:39:48.662Z,933.69
2018-07-20T03:40:48.634Z,933.70
2018-07-20T03:41:48.582Z,933.71
2018-07-20T03:42:48.537Z,933.70
2018-07-20T03:43:48.490Z,933.66
2018-07-20T03:44:48.435Z,933.65
2018-07-20T03:45:48.399Z,933.69
2018-07-20T03:46:48.341Z,933.66
2018-07-20T03:47:48.295Z,933.71
2018-07-20T03:48:48.265Z,933.66
2018-07-20T03:49:48.208Z,933.66
2018-07-20T03:50:48.166Z,933.65
2018-07-20T03:51:48.112Z,933.64
2018-07-20T03:52:48.068Z,933.66
2018-07-20T03:53:48.020Z,933.60
2018-07-20T03:54:47.978Z,933.64
2018-07-20T03:55:47.936Z,933.58
2018-07-20T03:56:47.890Z,933.60
2018-07-20T03:57:47.845Z,933.55
2018-07-20T03:58:47.786Z,933.54
2018-07-20T03:59:47.757Z,933.55
2018-07-20T04:00:47.704Z,933.52
2018-07-20T04:01:47.660Z,933.53
2018-07-20T04:02:47.618Z,933.50
2018-07-20T04:03:47.570Z,933.50
2018-07-20T04:04:47.523Z,933.50
2018-07-20T04:05:47.486Z,933.50
2018-07-20T04:06:47.403Z,933.51
2018-07-20T04:07:47.387Z,933.51
2018-07-20T04:08:47.341Z,933.49
2018-07-20T04:09:47.293Z,933.46
2018-07-20T04:10:47.248Z,933.46
2018-07-20T04:11:47.176Z,933.44
2018-07-20T04:12:47.139Z,933.40
2018-07-20T04:13:47.106Z,933.43
2018-07-20T04:14:47.065Z,933.37
2018-07-20T04:15:47.018Z,933.36
2018-07-20T04:16:46.980Z,933.38
2018-07-20T04:17:46.931Z,933.35
2018-07-20T04:18:46.884Z,933.34
2018-07-20T04:19:46.843Z,933.30
2018-07-20T04:20:46.763Z,933.35
2018-07-20T04:21:46.744Z,933.33
2018-07-20T04:22:46.682Z,933.33
2018-07-20T04:23:46.648Z,933.33
2018-07-20T04:24:46.619Z,933.29
2018-07-20T04:25:46.550Z,933.28
2018-07-20T04:26:46.496Z,933.30
2018-07-20T04:27:46.458Z,933.27
2018-07-20T04:28:46.403Z,933.24
2018-07-20T04:29:46.389Z,933.27
2018-07-20T04:30:46.333Z,933.25
2018-07-20T04:31:46.269Z,933.21
2018-07-20T04:32:46.230Z,933.24
2018-07-20T04:33:46.192Z,933.19
2018-07-20T04:34:46.153Z,933.24
2018-07-20T04:35:46.093Z,933.26
2018-07-20T04:36:46.048Z,933.25
2018-07-20T04:37:46.007Z,933.24
2018-07-20T04:38:45.961Z,933.22
2018-07-20T04:39:45.919Z,933.25
2018-07-20T04:40:45.871Z,933.21
2018-07-20T04:41:45.819Z,933.15
2018-07-20T04:42:45.775Z,933.16
2018-07-20T04:43:45.783Z,933.22
2018-07-20T04:44:45.681Z,933.22
2018-07-20T04:45:45.639Z,933.22
2018-07-20T04:46:45.596Z,933.18
2018-07-20T04:47:45.549Z,933.18
2018-07-20T04:48:45.492Z,933.16
2018-07-20T04:49:45.458Z,933.18
2018-07-20T04:50:45.415Z,933.21
2018-07-20T04:51:45.371Z,933.18
2018-07-20T04:52:45.316Z,933.20
2018-07-20T04:53:45.261Z,933.18
2018-07-20T04:54:45.207Z,933.17
2018-07-20T04:55:45.191Z,933.14
2018-07-20T04:56:45.134Z,933.15
2018-07-20T04:57:45.085Z,933.17
2018-07-20T04:58:45.090Z,933.20
2018-07-20T04:59:44.996Z,933.15
2018-07-20T05:00:44.947Z,933.18
2018-07-20T05:01:44.893Z,933.20
2018-07-20T05:02:44.854Z,933.19
2018-07-20T05:03:44.826Z,933.13
2018-07-20T05:04:44.762Z,933.19
2018-07-20T05:05:44.744Z,933.16
2018-07-20T05:06:44.670Z,933.21
2018-07-20T05:07:44.616Z,933.16
2018-07-20T05:08:44.569Z,933.14
2018-07-20T05:09:44.522Z,933.13
2018-07-20T05:10:44.484Z,933.07
2018-07-20T05:11:44.432Z,933.10
2018-07-20T05:12:44.385Z,933.15
2018-07-20T05:13:44.364Z,933.11
2018-07-20T05:14:44.273Z,933.07
2018-07-20T05:15:44.259Z,933.09
2018-07-20T05:16:44.186Z,933.10
2018-07-20T05:17:44.152Z,933.06
2018-07-20T05:18:44.131Z,933.04
2018-07-20T05:19:44.072Z,933.05
2018-07-20T05:20:44.030Z,933.03
2018-07-20T05:21:43.968Z,933.01
2018-07-20T05:22:43.934Z,933.05
2018-07-20T05:23:43.881Z,933.06
2018-07-20T05:24:43.813Z,933.02
2018-07-20T05:25:43.796Z,933.03
2018-07-20T05:26:43.728Z,933.02
2018-07-20T05:27:43.690Z,933.01
2018-07-20T05:28:43.645Z,932.99
2018-07-20T05:29:43.597Z,932.98
2018-07-20T05:30:43.564Z,932.92
2018-07-20T05:31:43.519Z,932.96
2018-07-20T05:32:43.551Z,932.94
2018-07-20T05:33:43.424Z,932.89
2018-07-20T05:34:43.380Z,932.89
2018-07-20T05:35:43.329Z,932.89
2018-07-20T05:36:43.285Z,932.91
2018-07-20T05:37:43.228Z,932.93
2018-07-20T05:38:43.182Z,932.92
2018-07-20T05:39:43.136Z,932.93
2018-07-20T05:40:43.110Z,932.88
2018-07-20T05:41:43.044Z,932.90
2018-07-20T05:42:43.006Z,932.89
2018-07-20T05:43:42.954Z,932.88
2018-07-20T05:44:42.913Z,932.90
2018-07-20T05:45:42.866Z,932.87
2018-07-20T05:46:42.820Z,932.87
2018-07-20T05:47:42.786Z,932.96
2018-07-20T05:48:42.731Z,932.91
2018-07-20T05:49:42.678Z,932.93
2018-07-20T05:50:42.639Z,932.94
2018-07-20T05:51:42.588Z,932.95
2018-07-20T05:52:42.544Z,933.01
2018-07-20T05:53:42.498Z,932.97
2018-07-20T05:54:42.453Z,932.99
2018-07-20T05:55:42.404Z,932.98
2018-07-20T05:56:42.356Z,933.02
2018-07-20T05:57:42.301Z,933.00
2018-07-20T05:58:42.269Z,933.03
2018-07-20T05:59:42.221Z,932.99
2018-07-20T06:00:42.167Z,932.99
2018-07-20T06:01:42.120Z,933.01
2018-07-20T06:02:42.074Z,932.97
2018-07-20T06:03:42.006Z,932.98
2018-07-20T06:04:41.994Z,932.92
2018-07-20T06:05:42.083Z,932.94
2018-07-20T06:06:41.886Z,932.93
2018-07-20T06:07:41.847Z,932.91
2018-07-20T06:08:41.792Z,932.91
2018-07-20T06:09:41.760Z,932.88
2018-07-20T06:10:41.707Z,932.93
2018-07-20T06:11:41.676Z,932.91
2018-07-20T06:12:41.619Z,932.89
2018-07-20T06:13:41.546Z,932.90
2018-07-20T06:14:41.522Z,932.90
2018-07-20T06:15:41.480Z,932.87
2018-07-20T06:16:41.430Z,932.91
2018-07-20T06:17:41.377Z,932.96
2018-07-20T06:18:41.337Z,932.94
2018-07-20T06:19:41.295Z,932.95
2018-07-20T06:20:41.251Z,932.95
2018-07-20T06:21:41.198Z,932.91
2018-07-20T06:22:41.170Z,932.97
2018-07-20T06:23:41.133Z,932.95
2018-07-20T06:24:41.050Z,932.95
2018-07-20T06:25:41.002Z,932.95
2018-07-20T06:26:40.968Z,932.95
2018-07-20T06:27:40.912Z,932.93
2018-07-20T06:28:40.864Z,932.94
2018-07-20T06:29:40.865Z,932.93
2018-07-20T06:30:40.779Z,932.90
2018-07-20T06:31:40.756Z,932.93
2018-07-20T06:32:40.681Z,932.85
2018-07-20T06:33:40.633Z,932.86
2018-07-20T06:34:40.593Z,932.89
2018-07-20T06:35:40.555Z,932.90
2018-07-20T06:36:40.487Z,932.86
2018-07-20T06:37:40.451Z,932.90
2018-07-20T06:38:40.409Z,932.86
2018-07-20T06:39:40.366Z,932.83
2018-07-20T06:40:40.304Z,932.86
2018-07-20T06:41:40.271Z,932.84
2018-07-20T06:42:40.228Z,932.89
2018-07-20T06:43:40.173Z,932.84
2018-07-20T06:44:40.122Z,932.82
2018-07-20T06:45:40.093Z,932.82
2018-07-20T06:46:40.045Z,932.82
2018-07-20T06:47:39.984Z,932.82
2018-07-20T06:48:39.943Z,932.78
2018-07-20T06:49:39.906Z,932.80
2018-07-20T06:50:39.853Z,932.81
2018-07-20T06:51:39.811Z,932.81
2018-07-20T06:52:39.761Z,932.79
2018-07-20T06:53:39.717Z,932.78
2018-07-20T06:54:39.667Z,932.81
2018-07-20T06:55:39.603Z,932.77
2018-07-20T06:56:39.574Z,932.79
2018-07-20T06:57:39.533Z,932.74
2018-07-20T06:58:39.482Z,932.77
2018-07-20T06:59:39.446Z,932.74
2018-07-20T07:00:39.389Z,932.74
2018-07-20T07:01:39.346Z,932.72
2018-07-20T07:02:39.295Z,932.75
2018-07-20T07:03:39.253Z,932.76
2018-07-20T07:04:39.196Z,932.75
2018-07-20T07:05:39.158Z,932.71
2018-07-20T07:06:39.113Z,932.70
2018-07-20T07:07:39.055Z,932.71
2018-07-20T07:08:39.016Z,932.68
2018-07-20T07:09:38.946Z,932.67
2018-07-20T07:10:38.919Z,932.69
2018-07-20T07:11:38.878Z,932.71
2018-07-20T07:12:38.821Z,932.71
2018-07-20T07:13:38.777Z,932.73
2018-07-20T07:14:38.738Z,932.69
2018-07-20T07:15:38.683Z,932.67
2018-07-20T07:16:38.654Z,932.67
2018-07-20T07:17:38.598Z,932.71
2018-07-20T07:18:38.544Z,932.70
2018-07-20T07:19:38.506Z,932.72
2018-07-20T07:20:38.451Z,932.71
2018-07-20T07:21:38.413Z,932.72
2018-07-20T07:22:38.370Z,932.74
2018-07-20T07:23:38.407Z,932.70
2018-07-20T07:24:38.251Z,932.73
2018-07-20T07:25:38.224Z,932.71
2018-07-20T07:26:38.267Z,932.68
2018-07-20T07:27:38.140Z,932.68
2018-07-20T07:28:38.092Z,932.67
2018-07-20T07:29:38.041Z,932.66
2018-07-20T07:30:37.986Z,932.66
2018-07-20T07:31:37.956Z,932.65
2018-07-20T07:32:37.982Z,932.69
2018-07-20T07:33:37.851Z,932.70
2018-07-20T07:34:37.814Z,932.70
2018-07-20T07:35:37.752Z,932.68
2018-07-20T07:36:37.702Z,932.68
2018-07-20T07:37:37.679Z,932.67
2018-07-20T07:38:37.728Z,932.68
2018-07-20T07:39:37.575Z,932.65
2018-07-20T07:40:37.504Z,932.68
2018-07-20T07:41:37.490Z,932.68
2018-07-20T07:42:37.431Z,932.70
2018-07-20T07:43:37.381Z,932.69
2018-07-20T07:44:37.443Z,932.68
2018-07-20T07:45:37.312Z,932.71
2018-07-20T07:46:37.241Z,932.68
2018-07-20T07:47:37.207Z,932.67
2018-07-20T07:48:37.147Z,932.64
2018-07-20T07:49:37.093Z,932.66
2018-07-20T07:50:37.172Z,932.64
2018-07-20T07:51:37.004Z,932.68
2018-07-20T07:52:36.970Z,932.68
2018-07-20T07:53:36.922Z,932.69
2018-07-20T07:54:36.869Z,932.70
2018-07-20T07:55:36.835Z,932.77
2018-07-20T07:56:36.884Z,932.72
2018-07-20T07:57:36.727Z,932.74
2018-07-20T07:58:36.691Z,932.74
2018-07-20T07:59:36.641Z,932.71
2018-07-20T08:00:36.621Z,932.75
2018-07-20T08:01:36.543Z,932.68
2018-07-20T08:02:36.511Z,932.64
2018-07-20T08:03:36.512Z,932.65
2018-07-20T08:04:36.388Z,932.67
2018-07-20T08:05:36.348Z,932.59
2018-07-20T08:06:36.303Z,932.54
2018-07-20T08:07:36.263Z,932.59
2018-07-20T08:08:36.236Z,932.59
2018-07-20T08:09:36.168Z,932.58
2018-07-20T08:10:36.127Z,932.54
2018-07-20T08:11:36.092Z,932.54
2018-07-20T08:12:36.034Z,932.56
2018-07-20T08:13:35.991Z,932.52
2018-07-20T08:14:35.927Z,932.51
2018-07-20T08:15:35.895Z,932.53
2018-07-20T08:16:35.927Z,932.51
2018-07-20T08:17:35.796Z,932.52
2018-07-20T08:18:35.758Z,932.50
2018-07-20T08:19:35.709Z,932.50
2018-07-20T08:20:35.657Z,932.50
2018-07-20T08:21:35.621Z,932.52
2018-07-20T08:22:35.572Z,932.51
2018-07-20T08:23:35.526Z,932.52
2018-07-20T08:24:35.483Z,932.51
2018-07-20T08:25:35.450Z,932.53
2018-07-20T08:26:35.388Z,932.54
2018-07-20T08:27:35.332Z,932.54
2018-07-20T08:28:35.292Z,932.56
2018-07-20T08:29:35.329Z,932.52
2018-07-20T08:30:35.214Z,932.57
2018-07-20T08:31:35.153Z,932.54
2018-07-20T08:32:35.105Z,932.50
2018-07-20T08:33:35.068Z,932.49
2018-07-20T08:34:34.995Z,932.58
2018-07-20T08:35:35.007Z,932.57
2018-07-20T08:36:34.911Z,932.59
2018-07-20T08:37:34.864Z,932.56
2018-07-20T08:38:34.825Z,932.60
2018-07-20T08:39:34.791Z,932.57
2018-07-20T08:40:34.732Z,932.58
2018-07-20T08:41:34.677Z,932.57
2018-07-20T08:42:34.638Z,932.58
2018-07-20T08:43:34.577Z,932.56
2018-07-20T08:44:34.545Z,932.54
2018-07-20T08:45:34.496Z,932.54
2018-07-20T08:46:34.564Z,932.53
2018-07-20T08:47:34.382Z,932.51
2018-07-20T08:48:34.351Z,932.58
2018-07-20T08:49:34.303Z,932.51
2018-07-20T08:50:34.240Z,932.59
2018-07-20T08:51:34.220Z,932.51
2018-07-20T08:52:34.185Z,932.48
2018-07-20T08:53:34.123Z,932.47
2018-07-20T08:54:34.079Z,932.47
2018-07-20T08:55:34.037Z,932.46
2018-07-20T08:56:33.984Z,932.53
2018-07-20T08:57:33.934Z,932.48
2018-07-20T08:58:33.891Z,932.46
2018-07-20T08:59:33.846Z,932.47
2018-07-20T09:00:33.818Z,932.45
2018-07-20T09:01:33.759Z,932.44
2018-07-20T09:02:33.678Z,932.46
2018-07-20T09:03:33.699Z,932.46
2018-07-20T09:04:33.611Z,932.43
2018-07-20T09:05:33.568Z,932.45
2018-07-20T09:06:33.523Z,932.46
2018-07-20T09:07:33.461Z,932.44
2018-07-20T09:08:33.427Z,932.45
2018-07-20T09:09:33.373Z,932.47
2018-07-20T09:10:33.322Z,932.46
2018-07-20T09:11:33.276Z,932.46
2018-07-20T09:12:33.236Z,932.43
2018-07-20T09:13:33.282Z,932.46
2018-07-20T09:14:33.136Z,932.47
2018-07-20T09:15:33.103Z,932.46
2018-07-20T09:16:33.054Z,932.48
2018-07-20T09:17:32.995Z,932.48
2018-07-20T09:18:32.947Z,932.49
2018-07-20T09:19:32.922Z,932.51
2018-07-20T09:20:32.923Z,932.49
2018-07-20T09:21:32.802Z,932.51
2018-07-20T09:22:32.760Z,932.50
2018-07-20T09:23:32.719Z,932.52
2018-07-20T09:24:32.687Z,932.54
2018-07-20T09:25:32.630Z,932.53
2018-07-20T09:26:32.583Z,932.51
2018-07-20T09:27:32.528Z,932.51
2018-07-20T09:28:32.484Z,932.50
2018-07-20T09:29:32.438Z,932.54
2018-07-20T09:30:32.397Z,932.53
2018-07-20T09:31:32.339Z,932.50
2018-07-20T09:32:32.304Z,932.51
2018-07-20T09:33:32.262Z,932.54
2018-07-20T09:34:32.213Z,932.54
2018-07-20T09:35:32.166Z,932.51
2018-07-20T09:36:32.097Z,932.48
2018-07-20T09:37:32.060Z,932.50
2018-07-20T09:38:32.018Z,932.48
2018-07-20T09:39:31.979Z,932.47
2018-07-20T09:40:31.933Z,932.39
2018-07-20T09:41:31.873Z,932.44
2018-07-20T09:42:31.832Z,932.45
2018-07-20T09:43:31.779Z,932.45
2018-07-20T09:44:31.786Z,932.46
2018-07-20T09:45:31.701Z,932.51
2018-07-20T09:46:31.642Z,932.47
2018-07-20T09:47:31.604Z,932.49
2018-07-20T09:48:31.558Z,932.46
2018-07-20T09:49:31.514Z,932.46
2018-07-20T09:50:31.461Z,932.48
2018-07-20T09:51:31.394Z,932.50
2018-07-20T09:52:31.367Z,932.46
2018-07-20T09:53:31.316Z,932.42
2018-07-20T09:54:31.251Z,932.39
2018-07-20T09:55:31.218Z,932.36
2018-07-20T09:56:31.176Z,932.32
2018-07-20T09:57:31.125Z,932.36
2018-07-20T09:58:31.114Z,932.34
2018-07-20T09:59:31.131Z,932.38
2018-07-20T10:00:30.992Z,932.42
2018-07-20T10:01:30.937Z,932.44
2018-07-20T10:02:30.899Z,932.44
2018-07-20T10:03:30.855Z,932.47
2018-07-20T10:04:30.809Z,932.43
2018-07-20T10:05:30.776Z,932.48
2018-07-20T10:06:30.713Z,932.43
2018-07-20T10:07:30.657Z,932.47
2018-07-20T10:08:30.631Z,932.49
2018-07-20T10:09:30.553Z,932.51
2018-07-20T10:10:30.531Z,932.50
2018-07-20T10:11:30.536Z,932.50
2018-07-20T10:12:30.461Z,932.51
2018-07-20T10:13:30.381Z,932.53
2018-07-20T10:14:30.337Z,932.53
2018-07-20T10:15:30.304Z,932.54
2018-07-20T10:16:30.239Z,932.58
2018-07-20T10:17:30.172Z,932.56
2018-07-20T10:18:30.157Z,932.57
2018-07-20T10:19:30.097Z,932.57
2018-07-20T10:20:30.053Z,932.61
2018-07-20T10:21:30.021Z,932.64
2018-07-20T10:22:29.949Z,932.59
2018-07-20T10:23:29.891Z,932.66
2018-07-20T10:24:29.874Z,932.59
2018-07-20T10:25:29.872Z,932.66
2018-07-20T10:26:29.774Z,932.70
2018-07-20T10:27:29.726Z,932.70
2018-07-20T10:28:29.685Z,932.74
2018-07-20T10:29:29.627Z,932.69
2018-07-20T10:30:29.589Z,932.68
2018-07-20T10:31:29.546Z,932.80
2018-07-20T10:32:29.504Z,932.87
2018-07-20T10:33:29.453Z,932.93
2018-07-20T10:34:29.410Z,933.14
2018-07-20T10:35:29.355Z,933.37
2018-07-20T10:36:29.309Z,933.55
2018-07-20T10:37:29.263Z,933.78
2018-07-20T10:38:29.234Z,933.85
2018-07-20T10:39:29.193Z,933.91
2018-07-20T10:40:29.130Z,933.90
2018-07-20T10:41:29.094Z,933.92
2018-07-20T10:42:29.048Z,933.96
2018-07-20T10:43:29.006Z,933.88
2018-07-20T10:44:28.959Z,933.92
2018-07-20T10:45:28.927Z,933.87
2018-07-20T10:46:28.886Z,933.92
2018-07-20T10:47:28.848Z,933.90
2018-07-20T10:48:28.788Z,933.94
2018-07-20T10:49:28.744Z,933.95
2018-07-20T10:50:28.702Z,933.93
2018-07-20T10:51:28.672Z,933.90
2018-07-20T10:52:28.638Z,933.90
2018-07-20T10:53:28.591Z,933.99
2018-07-20T10:54:28.557Z,933.95
2018-07-20T10:55:28.524Z,933.92
2018-07-20T10:56:28.505Z,934.00
2018-07-20T10:57:28.444Z,933.97
2018-07-20T10:58:28.422Z,934.00
2018-07-20T10:59:28.371Z,934.00
2018-07-20T11:00:28.341Z,933.98
2018-07-20T11:01:28.382Z,933.94
2018-07-20T11:02:28.259Z,933.95
2018-07-20T11:03:28.231Z,933.94
2018-07-20T11:04:28.180Z,933.99
2018-07-20T11:05:28.158Z,933.96
2018-07-20T11:06:28.141Z,933.91
2018-07-20T11:07:28.088Z,933.91
2018-07-20T11:08:28.054Z,933.92
2018-07-20T11:09:28.020Z,933.92
2018-07-20T11:10:27.986Z,933.91
2018-07-20T11:11:27.951Z,933.92
2018-07-20T11:12:27.901Z,933.85
2018-07-20T11:13:27.880Z,933.88
2018-07-20T11:14:27.852Z,933.89
2018-07-20T11:15:27.819Z,933.88
2018-07-20T11:16:27.785Z,933.90
2018-07-20T11:17:27.734Z,933.89
2018-07-20T11:18:27.708Z,933.87
2018-07-20T11:19:27.672Z,933.92
2018-07-20T11:20:27.701Z,933.80
2018-07-20T11:21:27.613Z,933.50
2018-07-20T11:22:27.577Z,933.26
2018-07-20T11:23:27.543Z,933.29
2018-07-20T11:24:27.513Z,933.26
2018-07-20T11:25:27.484Z,933.30
2018-07-20T11:26:27.425Z,933.28
2018-07-20T11:27:27.385Z,933.32
2018-07-20T11:28:27.356Z,933.29
2018-07-20T11:29:27.324Z,933.24
2018-07-20T11:30:27.277Z,933.29
2018-07-20T11:31:27.209Z,933.23
2018-07-20T11:32:27.194Z,933.30
2018-07-20T11:33:27.138Z,933.29
2018-07-20T11:34:27.089Z,933.28
2018-07-20T11:35:27.086Z,933.32
2018-07-20T11:36:27.007Z,933.32
2018-07-20T11:37:26.974Z,933.33
2018-07-20T11:38:26.945Z,933.33
2018-07-20T11:39:26.908Z,933.30
2018-07-20T11:40:26.851Z,933.36
2018-07-20T11:41:26.814Z,933.34
2018-07-20T11:42:26.758Z,933.33
2018-07-20T11:43:26.738Z,933.36
2018-07-20T11:44:26.700Z,933.37
2018-07-20T11:45:26.640Z,933.39
2018-07-20T11:46:26.608Z,933.37
2018-07-20T11:47:26.577Z,933.37
2018-07-20T11:48:26.525Z,933.35
2018-07-20T11:49:26.473Z,933.38
2018-07-20T11:50:26.437Z,933.41
2018-07-20T11:51:26.391Z,933.43
2018-07-20T11:52:26.351Z,933.47
2018-07-20T11:53:26.308Z,933.52
2018-07-20T11:54:26.258Z,933.50
2018-07-20T11:55:26.214Z,933.43
2018-07-20T11:56:26.180Z,933.46
2018-07-20T11:57:26.143Z,933.49
2018-07-20T11:58:26.093Z,933.48
2018-07-20T11:59:26.047Z,933.51
2018-07-20T12:00:25.995Z,933.55
2018-07-20T12:01:26.085Z,933.55
2018-07-20T12:02:25.917Z,933.60
2018-07-20T12:03:25.874Z,933.61
2018-07-20T12:04:25.828Z,933.63
2018-07-20T12:05:25.783Z,933.67
2018-07-20T12:06:25.740Z,933.67
2018-07-20T12:07:25.699Z,933.64
2018-07-20T12:08:25.667Z,933.56
2018-07-20T12:09:25.603Z,933.55
2018-07-20T12:10:25.569Z,933.59
2018-07-20T12:11:25.527Z,933.60
2018-07-20T12:12:25.488Z,933.60
2018-07-20T12:13:25.439Z,933.61
2018-07-20T12:14:25.383Z,933.65
2018-07-20T12:15:25.352Z,933.64
2018-07-20T12:16:25.322Z,933.64
2018-07-20T12:17:25.258Z,933.63
2018-07-20T12:18:25.195Z,933.60
2018-07-20T12:19:25.184Z,933.65
2018-07-20T12:20:25.142Z,933.63
2018-07-20T12:21:25.096Z,933.62
2018-07-20T12:22:25.033Z,933.62
2018-07-20T12:23:25.001Z,933.58
2018-07-20T12:24:24.944Z,933.56
2018-07-20T12:25:24.913Z,933.58
2018-07-20T12:26:24.860Z,933.59
2018-07-20T12:27:24.842Z,933.58
2018-07-20T12:28:24.789Z,933.57